createdAt,value
2018-03-11T00:03:08.329Z,80.63
2018-03-11T00:08:09.291Z,73.37
2018-03-11T00:13:10.241Z,83.73
2018-03-11T00:18:11.173Z,85.33
2018-03-11T00:23:12.097Z,75.93
2018-03-11T00:28:13.038Z,97.13
2018-03-11T00:33:14.000Z,84.73
2018-03-11T00:43:23.254Z,73.63
2018-03-11T00:48:24.201Z,80.20
2018-03-11T00:53:26.303Z,82.10
2018-03-11T00:58:27.262Z,76.03
2018-03-11T01:03:28.187Z,75.47
2018-03-11T01:08:29.106Z,71.70
2018-03-11T01:13:30.057Z,74.77
2018-03-11T01:18:31.268Z,74.57
2018-03-11T01:23:32.256Z,67.10
2018-03-11T01:28:33.186Z,78.00
2018-03-11T01:33:34.102Z,73.00
2018-03-11T01:38:35.287Z,77.60
2018-03-11T01:43:36.216Z,63.07
2018-03-11T01:48:37.124Z,70.50
2018-03-11T01:53:38.063Z,75.40
2018-03-11T01:58:39.045Z,68.90
2018-03-11T02:03:39.977Z,70.07
2018-03-11T02:08:40.900Z,75.77
2018-03-11T02:13:41.871Z,69.67
2018-03-11T02:18:42.836Z,63.40
2018-03-11T02:23:43.774Z,69.63
2018-03-11T02:28:51.566Z,68.47
2018-03-11T02:33:52.500Z,71.83
2018-03-11T02:38:53.467Z,64.60
2018-03-11T02:43:54.397Z,60.47
2018-03-11T02:48:55.316Z,61.40
2018-03-11T02:53:56.235Z,61.80
2018-03-11T02:58:57.163Z,64.60
2018-03-11T03:03:58.098Z,62.57
2018-03-11T03:08:59.012Z,64.03
2018-03-11T03:13:59.947Z,65.47
2018-03-11T03:19:00.853Z,65.20
2018-03-11T03:24:01.773Z,60.33
2018-03-11T03:29:02.700Z,63.03
2018-03-11T03:34:03.612Z,66.30
2018-03-11T03:39:04.555Z,62.67
2018-03-11T03:44:05.488Z,62.90
2018-03-11T03:49:06.533Z,59.20
2018-03-11T03:54:07.464Z,60.17
2018-03-11T03:59:08.449Z,73.60
2018-03-11T04:04:09.384Z,66.60
2018-03-11T04:09:10.313Z,67.03
2018-03-11T04:14:11.232Z,71.03
2018-03-11T04:19:12.416Z,66.37
2018-03-11T04:24:13.338Z,70.20
2018-03-11T04:29:14.593Z,67.63
2018-03-11T04:34:15.529Z,70.50
2018-03-11T04:39:16.494Z,85.23
2018-03-11T04:44:17.402Z,71.13
2018-03-11T04:49:18.338Z,86.97
2018-03-11T04:54:19.251Z,81.07
2018-03-11T04:59:20.214Z,79.90
2018-03-11T05:04:21.128Z,77.30
2018-03-11T05:09:22.112Z,90.47
2018-03-11T05:14:23.041Z,72.00
2018-03-11T05:19:23.977Z,87.13
2018-03-11T05:24:24.909Z,92.73
2018-03-11T05:29:25.828Z,93.43
2018-03-11T05:34:26.753Z,94.83
2018-03-11T05:39:27.700Z,77.87
2018-03-11T05:44:28.655Z,119.23
2018-03-11T05:49:29.595Z,82.20
2018-03-11T05:54:30.530Z,83.13
2018-03-11T05:59:31.481Z,69.60
2018-03-11T06:04:32.417Z,82.60
2018-03-11T06:09:34.116Z,77.60
2018-03-11T06:14:35.064Z,78.90
2018-03-11T06:19:36.013Z,93.10
2018-03-11T06:24:36.925Z,72.83
2018-03-11T06:29:38.169Z,90.07
2018-03-11T06:34:39.094Z,86.73
2018-03-11T06:39:40.064Z,82.37
2018-03-11T06:44:41.324Z,84.23
2018-03-11T06:49:42.235Z,74.33
2018-03-11T06:54:43.149Z,83.73
2018-03-11T06:59:44.132Z,89.63
2018-03-11T07:04:45.057Z,100.97
2018-03-11T07:09:45.991Z,92.67
2018-03-11T11:14:44.460Z,42.10
2018-03-11T11:19:45.442Z,41.60
2018-03-11T11:24:46.389Z,40.40
2018-03-11T11:29:47.331Z,42.70
2018-03-11T11:34:48.346Z,36.23
2018-03-11T11:39:49.316Z,33.03
2018-03-11T11:44:50.288Z,35.23
2018-03-11T11:49:51.273Z,34.23
2018-03-11T11:54:52.255Z,31.80
2018-03-11T11:59:53.228Z,34.70
2018-03-11T12:04:54.202Z,27.90
2018-03-11T12:09:55.178Z,29.70
2018-03-11T12:14:56.149Z,29.90
2018-03-11T12:19:57.173Z,28.27
2018-03-11T12:24:58.179Z,26.33
2018-03-11T12:29:59.151Z,27.13
2018-03-11T12:35:00.124Z,27.53
2018-03-11T12:40:01.143Z,30.63
2018-03-11T12:45:02.098Z,27.70
2018-03-11T12:50:03.052Z,26.00
2018-03-11T12:55:04.016Z,28.20
2018-03-11T13:00:04.997Z,23.00
2018-03-11T13:05:05.971Z,22.50
2018-03-11T13:10:06.988Z,22.63
2018-03-11T13:15:07.955Z,23.27
2018-03-11T13:20:21.234Z,23.33
2018-03-11T13:25:22.223Z,27.57
2018-03-11T13:30:23.204Z,25.00
2018-03-11T13:35:24.170Z,22.33
2018-03-11T13:40:41.482Z,19.97
2018-03-11T13:45:54.797Z,26.17
2018-03-11T13:50:55.801Z,25.90
2018-03-11T13:55:56.794Z,21.10
2018-03-11T14:00:57.788Z,17.40
2018-03-11T14:05:58.769Z,16.80
2018-03-11T14:11:00.728Z,22.63
2018-03-11T14:16:01.712Z,16.20
2018-03-11T14:21:02.925Z,17.50
2018-03-11T14:26:03.926Z,17.30
2018-03-11T14:31:04.903Z,17.50
2018-03-11T14:36:05.877Z,20.67
2018-03-11T14:41:06.831Z,16.13
2018-03-11T14:46:08.758Z,18.40
2018-03-11T14:51:09.734Z,15.23
2018-03-11T14:56:10.701Z,20.07
2018-03-11T15:01:11.681Z,17.10
2018-03-11T16:24:29.413Z,12.73
2018-03-11T16:29:30.442Z,12.90
2018-03-11T16:34:31.417Z,14.23
2018-03-11T16:39:32.462Z,14.50
2018-03-11T16:49:49.364Z,13.27
2018-03-11T16:54:50.336Z,14.40
2018-03-11T16:59:51.287Z,17.23
2018-03-11T17:04:52.286Z,14.67
2018-03-11T17:09:53.283Z,15.80
2018-03-11T17:14:54.256Z,16.13
2018-03-11T17:19:55.273Z,18.53
2018-03-11T17:24:56.313Z,14.70
2018-03-11T17:29:57.339Z,15.43
2018-03-11T17:34:58.330Z,15.73
2018-03-11T17:39:59.350Z,15.30
2018-03-11T17:45:00.306Z,16.00
2018-03-11T17:50:01.297Z,15.63
2018-03-11T17:55:02.288Z,16.17
2018-03-11T18:00:03.287Z,22.00
2018-03-11T18:05:04.264Z,16.20
2018-03-11T18:10:05.241Z,16.90
2018-03-11T18:15:06.234Z,22.60
2018-03-11T18:20:07.194Z,19.70
2018-03-11T18:25:08.176Z,21.20
2018-03-11T18:30:09.192Z,19.70
2018-03-11T18:35:10.177Z,22.07
2018-03-11T18:40:11.186Z,21.50
2018-03-11T18:45:12.148Z,18.90
2018-03-11T18:50:13.157Z,23.47
2018-03-11T18:55:14.158Z,25.93
2018-03-11T19:00:15.130Z,24.20
2018-03-11T19:05:16.091Z,26.13
2018-03-11T19:10:17.062Z,20.50
2018-03-11T19:15:18.065Z,23.30
2018-03-11T19:20:19.094Z,23.20
2018-03-11T19:25:20.060Z,29.40
2018-03-11T19:30:21.092Z,28.67
2018-03-11T19:35:22.050Z,24.77
2018-03-11T19:40:23.089Z,23.40
2018-03-11T19:45:24.119Z,28.30
2018-03-11T19:50:25.101Z,29.23
2018-03-11T19:55:26.045Z,24.63
2018-03-11T20:00:27.038Z,25.13
2018-03-11T20:05:28.022Z,29.20
2018-03-11T20:10:28.972Z,29.97
2018-03-11T20:15:29.994Z,31.03
2018-03-11T20:20:30.956Z,26.40
2018-03-11T20:25:31.969Z,28.97
2018-03-11T20:30:32.997Z,31.50
2018-03-11T20:35:33.999Z,26.20
2018-03-11T20:40:35.004Z,31.00
2018-03-11T20:45:36.007Z,29.73
2018-03-11T20:50:37.003Z,32.90
2018-03-11T20:55:38.012Z,28.83
2018-03-11T21:00:39.017Z,31.67
2018-03-11T21:05:39.993Z,32.60
2018-03-11T21:10:40.980Z,39.67
2018-03-11T21:28:18.402Z,35.37
2018-03-11T21:33:19.429Z,36.57
2018-03-11T21:38:20.436Z,33.53
2018-03-11T21:43:21.386Z,35.90
2018-03-11T21:48:22.347Z,36.17
2018-03-11T21:53:23.303Z,38.83
2018-03-11T21:58:25.134Z,34.40
2018-03-11T22:03:26.089Z,35.73
2018-03-11T22:08:27.057Z,36.43
2018-03-11T22:13:28.005Z,38.07
2018-03-11T22:18:28.995Z,38.10
2018-03-11T22:23:29.950Z,34.00
2018-03-11T22:28:30.901Z,38.20
2018-03-11T22:33:31.858Z,31.43
2018-03-11T22:38:32.775Z,35.87
2018-03-11T22:43:33.738Z,30.27
2018-03-11T22:48:34.685Z,27.65
2018-03-11T22:53:35.618Z,34.53
2018-03-11T22:58:36.574Z,28.43
2018-03-11T23:03:37.512Z,30.43
2018-03-11T23:08:38.472Z,24.97
2018-03-11T23:13:39.463Z,24.43
2018-03-11T23:18:52.738Z,26.47
2018-03-11T23:23:53.690Z,29.20
2018-03-11T23:28:54.629Z,28.90
2018-03-11T23:33:55.580Z,26.37
2018-03-11T23:38:56.518Z,27.07
2018-03-11T23:43:57.695Z,28.03
2018-03-11T23:48:58.958Z,30.60
2018-03-11T23:53:59.888Z,30.30
2018-03-11T23:59:00.815Z,33.07
